NKS237 KFLL-SKRG
Flight info
| Callsign | NKS237 |
|---|---|
| Flight time | N/A |
| Altitude | 39000 |
| Route | REGAE2 URSUS UP406 AKPEK AKPEK4C |
| Aircraft | A20N/M-SDE2E3FGHIRWXY/LB1 |
Departure
| Time | 2026-05-03 21:52 |
|---|---|
| Airport | Fort Lauderdale Hollywood International Airport (KFLL) |
Arrival
| Time | N/A |
|---|---|
| Airport | Jose Maria Córdova International Airport (SKRG) |
| Time | Latitude | Longitude | Altitude | Speed | Heading |
|---|---|---|---|---|---|
| 2026-05-03 21:23 | 26.06883 | -80.14211 | 9 ft | 0 kts | 0° |
| 2026-05-03 21:35 | 26.06870 | -80.14211 | 9 ft | 2 kts | 360° |
| 2026-05-03 21:35 | 26.06855 | -80.14211 | 9 ft | 2 kts | 0° |
| 2026-05-03 21:35 | 26.06840 | -80.14211 | 9 ft | 2 kts | 360° |
| 2026-05-03 21:35 | 26.06829 | -80.14211 | 9 ft | 1 kts | 0° |
| 2026-05-03 21:36 | 26.06817 | -80.14208 | 9 ft | 1 kts | 328° |
| 2026-05-03 21:36 | 26.06807 | -80.14195 | 9 ft | 1 kts | 281° |
| 2026-05-03 21:36 | 26.06806 | -80.14190 | 9 ft | 0 kts | 270° |
| 2026-05-03 21:44 | 26.06806 | -80.14193 | 9 ft | 1 kts | 269° |
| 2026-05-03 21:44 | 26.06802 | -80.14218 | 9 ft | 5 kts | 252° |
| 2026-05-03 21:44 | 26.06780 | -80.14269 | 9 ft | 9 kts | 243° |
| 2026-05-03 21:45 | 26.06759 | -80.14347 | 9 ft | 11 kts | 269° |
| 2026-05-03 21:45 | 26.06763 | -80.14441 | 9 ft | 12 kts | 273° |
| 2026-05-03 21:45 | 26.06767 | -80.14541 | 9 ft | 13 kts | 271° |
| 2026-05-03 21:45 | 26.06764 | -80.14642 | 9 ft | 13 kts | 269° |
| 2026-05-03 21:46 | 26.06764 | -80.14749 | 9 ft | 13 kts | 271° |
| 2026-05-03 21:46 | 26.06766 | -80.14861 | 9 ft | 14 kts | 271° |
| 2026-05-03 21:46 | 26.06767 | -80.14973 | 9 ft | 14 kts | 270° |
| 2026-05-03 21:46 | 26.06767 | -80.15079 | 9 ft | 11 kts | 266° |
| 2026-05-03 21:47 | 26.06714 | -80.15140 | 9 ft | 12 kts | 213° |
| 2026-05-03 21:47 | 26.06694 | -80.15238 | 9 ft | 14 kts | 270° |
| 2026-05-03 21:47 | 26.06695 | -80.15359 | 9 ft | 16 kts | 271° |
| 2026-05-03 21:47 | 26.06696 | -80.15492 | 9 ft | 17 kts | 271° |
| 2026-05-03 21:48 | 26.06698 | -80.15625 | 9 ft | 17 kts | 270° |
| 2026-05-03 21:48 | 26.06700 | -80.15754 | 9 ft | 11 kts | 269° |
| 2026-05-03 21:48 | 26.06693 | -80.15794 | 9 ft | 0 kts | 242° |
| 2026-05-03 21:50 | 26.06690 | -80.15800 | 9 ft | 2 kts | 231° |
| 2026-05-03 21:50 | 26.06662 | -80.15819 | 9 ft | 7 kts | 197° |
| 2026-05-03 21:50 | 26.06599 | -80.15815 | 9 ft | 8 kts | 137° |
| 2026-05-03 21:51 | 26.06589 | -80.15776 | 9 ft | 0 kts | 89° |
| 2026-05-03 21:51 | 26.06590 | -80.15731 | 9 ft | 29 kts | 90° |
| 2026-05-03 21:51 | 26.06585 | -80.15215 | 10 ft | 100 kts | 91° |
| 2026-05-03 21:52 | 26.06580 | -80.14191 | 30 ft | 157 kts | 89° |
| 2026-05-03 21:52 | 26.06565 | -80.12895 | 416 ft | 171 kts | 89° |
| 2026-05-03 21:52 | 26.06542 | -80.11533 | 983 ft | 180 kts | 90° |
| 2026-05-03 21:52 | 26.06506 | -80.10133 | 1655 ft | 182 kts | 87° |
| 2026-05-03 21:53 | 26.06522 | -80.08717 | 2196 ft | 191 kts | 86° |
| 2026-05-03 21:53 | 26.06563 | -80.07153 | 2654 ft | 205 kts | 86° |
| 2026-05-03 21:53 | 26.06622 | -80.05512 | 3089 ft | 221 kts | 86° |
| 2026-05-03 21:53 | 26.06689 | -80.03692 | 3402 ft | 246 kts | 86° |
| 2026-05-03 21:54 | 26.06744 | -80.01713 | 3825 ft | 266 kts | 88° |
| 2026-05-03 21:54 | 26.06778 | -79.99593 | 3949 ft | 272 kts | 89° |
| 2026-05-03 21:54 | 26.06782 | -79.97454 | 3940 ft | 272 kts | 90° |
| 2026-05-03 21:54 | 26.06760 | -79.95340 | 3930 ft | 273 kts | 90° |
| 2026-05-03 21:55 | 26.06708 | -79.93221 | 3947 ft | 274 kts | 91° |
| 2026-05-03 21:55 | 26.06664 | -79.91093 | 4117 ft | 272 kts | 91° |
| 2026-05-03 21:55 | 26.06628 | -79.88957 | 4704 ft | 279 kts | 91° |
| 2026-05-03 21:55 | 26.06597 | -79.86755 | 5413 ft | 287 kts | 91° |
| 2026-05-03 21:56 | 26.06564 | -79.84508 | 6221 ft | 291 kts | 92° |
| 2026-05-03 21:56 | 26.06456 | -79.82249 | 7019 ft | 294 kts | 97° |
| 2026-05-03 21:56 | 26.06180 | -79.79988 | 7767 ft | 298 kts | 101° |
| 2026-05-03 21:56 | 26.05795 | -79.77702 | 8503 ft | 302 kts | 103° |
| 2026-05-03 21:57 | 26.05392 | -79.75378 | 9190 ft | 307 kts | 102° |
| 2026-05-03 21:57 | 26.05002 | -79.73038 | 9859 ft | 312 kts | 102° |
| 2026-05-03 21:57 | 26.04616 | -79.70628 | 10462 ft | 319 kts | 102° |
| 2026-05-03 21:57 | 26.04214 | -79.68088 | 10802 ft | 337 kts | 102° |
| 2026-05-03 21:58 | 26.03795 | -79.65468 | 11253 ft | 348 kts | 103° |
| 2026-05-03 21:58 | 26.03239 | -79.62834 | 11927 ft | 350 kts | 107° |
| 2026-05-03 21:58 | 26.02609 | -79.60187 | 12543 ft | 353 kts | 107° |
| 2026-05-03 21:58 | 26.01967 | -79.57536 | 12886 ft | 356 kts | 107° |
| 2026-05-03 21:59 | 26.01315 | -79.54846 | 12965 ft | 356 kts | 107° |
| 2026-05-03 21:59 | 26.00658 | -79.52180 | 12963 ft | 355 kts | 110° |
| 2026-05-03 21:59 | 25.99509 | -79.49768 | 12952 ft | 346 kts | 135° |
| 2026-05-03 21:59 | 25.97651 | -79.48155 | 12961 ft | 336 kts | 159° |
| 2026-05-03 22:00 | 25.95424 | -79.47416 | 12972 ft | 329 kts | 174° |
| 2026-05-03 22:00 | 25.93138 | -79.46982 | 12966 ft | 329 kts | 174° |
| 2026-05-03 22:00 | 25.90856 | -79.46544 | 12965 ft | 328 kts | 174° |
| 2026-05-03 22:00 | 25.88600 | -79.46085 | 12963 ft | 331 kts | 173° |
| 2026-05-03 22:01 | 25.86285 | -79.45606 | 12965 ft | 332 kts | 175° |
| 2026-05-03 22:01 | 25.83989 | -79.45564 | 12959 ft | 325 kts | 193° |
| 2026-05-03 22:01 | 25.81846 | -79.46358 | 12961 ft | 319 kts | 211° |
| 2026-05-03 22:01 | 25.79960 | -79.47677 | 13211 ft | 325 kts | 216° |
| 2026-05-03 22:02 | 25.78055 | -79.49084 | 13951 ft | 324 kts | 216° |
| 2026-05-03 22:02 | 25.76170 | -79.50470 | 14642 ft | 325 kts | 216° |
| 2026-05-03 22:02 | 25.74251 | -79.51871 | 15167 ft | 331 kts | 216° |
| 2026-05-03 22:02 | 25.72297 | -79.53292 | 15698 ft | 336 kts | 216° |
| 2026-05-03 22:03 | 25.70330 | -79.54717 | 16308 ft | 338 kts | 217° |
| 2026-05-03 22:03 | 25.68346 | -79.56177 | 16916 ft | 339 kts | 219° |
| 2026-05-03 22:03 | 25.66464 | -79.57732 | 17479 ft | 340 kts | 222° |
| 2026-05-03 22:03 | 25.64596 | -79.59365 | 18041 ft | 341 kts | 221° |
| 2026-05-03 22:04 | 25.62709 | -79.61020 | 18584 ft | 344 kts | 222° |
| 2026-05-03 22:04 | 25.60817 | -79.62678 | 19106 ft | 346 kts | 221° |
| 2026-05-03 22:04 | 25.58885 | -79.64370 | 19627 ft | 348 kts | 222° |
| 2026-05-03 22:04 | 25.56932 | -79.66080 | 20125 ft | 351 kts | 222° |
| 2026-05-03 22:05 | 25.54982 | -79.67788 | 20651 ft | 353 kts | 222° |
| 2026-05-03 22:05 | 25.53012 | -79.69511 | 21150 ft | 355 kts | 222° |
| 2026-05-03 22:05 | 25.50999 | -79.71273 | 21683 ft | 357 kts | 222° |
| 2026-05-03 22:05 | 25.49008 | -79.73015 | 22162 ft | 359 kts | 222° |
| 2026-05-03 22:06 | 25.46945 | -79.74818 | 22658 ft | 361 kts | 222° |
| 2026-05-03 22:06 | 25.44968 | -79.76546 | 23144 ft | 363 kts | 222° |
| 2026-05-03 22:06 | 25.42937 | -79.78320 | 23609 ft | 366 kts | 222° |
| 2026-05-03 22:06 | 25.40935 | -79.80067 | 24081 ft | 367 kts | 222° |
| 2026-05-03 22:07 | 25.38879 | -79.81853 | 24556 ft | 370 kts | 220° |
| 2026-05-03 22:07 | 25.36563 | -79.83243 | 24957 ft | 383 kts | 204° |
| 2026-05-03 22:07 | 25.33845 | -79.83773 | 25394 ft | 398 kts | 187° |
| 2026-05-03 22:07 | 25.31010 | -79.83348 | 25827 ft | 413 kts | 172° |
| 2026-05-03 22:08 | 25.28183 | -79.82454 | 26268 ft | 416 kts | 171° |
| 2026-05-03 22:08 | 25.25365 | -79.81539 | 26671 ft | 418 kts | 171° |
| 2026-05-03 22:08 | 25.22539 | -79.80624 | 27078 ft | 420 kts | 171° |
| 2026-05-03 22:08 | 25.19648 | -79.79694 | 27505 ft | 421 kts | 171° |
| 2026-05-03 22:09 | 25.16722 | -79.78756 | 27846 ft | 424 kts | 171° |
| 2026-05-03 22:09 | 25.13780 | -79.77813 | 28240 ft | 425 kts | 171° |
| 2026-05-03 22:09 | 25.10905 | -79.76896 | 28561 ft | 428 kts | 171° |
| 2026-05-03 22:10 | 25.05073 | -79.75035 | 29192 ft | 432 kts | 171° |
| 2026-05-03 22:10 | 25.02144 | -79.74101 | 29486 ft | 434 kts | 171° |
| 2026-05-03 22:10 | 24.99200 | -79.73163 | 29773 ft | 435 kts | 171° |
| 2026-05-03 22:10 | 24.96245 | -79.72221 | 30066 ft | 437 kts | 171° |
| 2026-05-03 22:11 | 24.93313 | -79.71188 | 30273 ft | 443 kts | 168° |
| 2026-05-03 22:11 | 24.90402 | -79.69953 | 30510 ft | 449 kts | 164° |
| 2026-05-03 22:11 | 24.87524 | -79.68504 | 30757 ft | 454 kts | 161° |
| 2026-05-03 22:11 | 24.84700 | -79.66848 | 30970 ft | 460 kts | 157° |
| 2026-05-03 22:12 | 24.81939 | -79.64984 | 31219 ft | 464 kts | 154° |
| 2026-05-03 22:12 | 24.79207 | -79.63058 | 31436 ft | 466 kts | 154° |
| 2026-05-03 22:12 | 24.76477 | -79.61126 | 31637 ft | 467 kts | 154° |
| 2026-05-03 22:12 | 24.73748 | -79.59195 | 31893 ft | 468 kts | 154° |
| 2026-05-03 22:13 | 24.70992 | -79.57249 | 32096 ft | 469 kts | 154° |
| 2026-05-03 22:13 | 24.68244 | -79.55312 | 32268 ft | 471 kts | 154° |
| 2026-05-03 22:13 | 24.65382 | -79.53302 | 32442 ft | 472 kts | 154° |
| 2026-05-03 22:13 | 24.62588 | -79.51340 | 32603 ft | 474 kts | 154° |
| 2026-05-03 22:14 | 24.59812 | -79.49390 | 32750 ft | 476 kts | 154° |
| 2026-05-03 22:14 | 24.57002 | -79.47419 | 32902 ft | 478 kts | 154° |
| 2026-05-03 22:14 | 24.54116 | -79.45394 | 33057 ft | 479 kts | 154° |
| 2026-05-03 22:14 | 24.51246 | -79.43383 | 33251 ft | 480 kts | 154° |
| 2026-05-03 22:15 | 24.48417 | -79.41398 | 33472 ft | 480 kts | 154° |
| 2026-05-03 22:15 | 24.45552 | -79.39392 | 33750 ft | 479 kts | 154° |
| 2026-05-03 22:15 | 24.42712 | -79.37403 | 33991 ft | 478 kts | 154° |
| 2026-05-03 22:15 | 24.39908 | -79.35443 | 34228 ft | 477 kts | 154° |
| 2026-05-03 22:16 | 24.37076 | -79.33463 | 34404 ft | 477 kts | 154° |
| 2026-05-03 22:16 | 24.34268 | -79.31502 | 34585 ft | 477 kts | 154° |
| 2026-05-03 22:16 | 24.31443 | -79.29529 | 34777 ft | 476 kts | 154° |
| 2026-05-03 22:16 | 24.28637 | -79.27553 | 34959 ft | 476 kts | 154° |
| 2026-05-03 22:17 | 24.25836 | -79.25542 | 35134 ft | 476 kts | 153° |
| 2026-05-03 22:17 | 24.23062 | -79.23541 | 35323 ft | 475 kts | 153° |
| 2026-05-03 22:17 | 24.20252 | -79.21516 | 35476 ft | 475 kts | 153° |
| 2026-05-03 22:17 | 24.17469 | -79.19514 | 35595 ft | 476 kts | 153° |
| 2026-05-03 22:18 | 24.14729 | -79.17548 | 35732 ft | 476 kts | 153° |
| 2026-05-03 22:18 | 24.11944 | -79.15550 | 35869 ft | 476 kts | 153° |
| 2026-05-03 22:18 | 24.09157 | -79.13553 | 36004 ft | 475 kts | 153° |
| 2026-05-03 22:18 | 24.06371 | -79.11647 | 36156 ft | 472 kts | 156° |
| 2026-05-03 22:19 | 24.03503 | -79.09939 | 36285 ft | 468 kts | 160° |
| 2026-05-03 22:19 | 24.00566 | -79.08452 | 36393 ft | 465 kts | 164° |
| 2026-05-03 22:19 | 23.97534 | -79.07171 | 36459 ft | 462 kts | 168° |
| 2026-05-03 22:20 | 23.91381 | -79.05287 | 36658 ft | 455 kts | 175° |
| 2026-05-03 22:20 | 23.88267 | -79.04643 | 36797 ft | 452 kts | 176° |
| 2026-05-03 22:20 | 23.85145 | -79.04031 | 36930 ft | 451 kts | 176° |
| 2026-05-03 22:21 | 23.78954 | -79.02821 | 36980 ft | 452 kts | 177° |
| 2026-05-03 22:21 | 23.72724 | -79.01596 | 36970 ft | 454 kts | 176° |
| 2026-05-03 22:22 | 23.66487 | -79.00363 | 36972 ft | 453 kts | 176° |
| 2026-05-03 22:22 | 23.60228 | -78.99126 | 36973 ft | 452 kts | 176° |
| 2026-05-03 22:23 | 23.54006 | -78.97898 | 36977 ft | 451 kts | 176° |
| 2026-05-03 22:23 | 23.47819 | -78.96677 | 36984 ft | 450 kts | 176° |
| 2026-05-03 22:24 | 23.41677 | -78.95467 | 36982 ft | 450 kts | 176° |
| 2026-05-03 22:24 | 23.35492 | -78.94251 | 36981 ft | 451 kts | 176° |
| 2026-05-03 22:25 | 23.29288 | -78.93031 | 36983 ft | 450 kts | 176° |
| 2026-05-03 22:25 | 23.23080 | -78.91812 | 36982 ft | 451 kts | 176° |
| 2026-05-03 22:26 | 23.16912 | -78.90601 | 36980 ft | 451 kts | 176° |
| 2026-05-03 22:26 | 23.10719 | -78.89384 | 36987 ft | 450 kts | 176° |
| 2026-05-03 22:27 | 23.04541 | -78.88173 | 36988 ft | 449 kts | 176° |
| 2026-05-03 22:27 | 22.98358 | -78.86961 | 36987 ft | 450 kts | 176° |
| 2026-05-03 22:28 | 22.92227 | -78.85760 | 36989 ft | 449 kts | 176° |
| 2026-05-03 22:28 | 22.86022 | -78.84548 | 36991 ft | 452 kts | 176° |
| 2026-05-03 22:29 | 22.79819 | -78.83337 | 36989 ft | 452 kts | 176° |
| 2026-05-03 22:29 | 22.73637 | -78.82129 | 36989 ft | 451 kts | 176° |
| 2026-05-03 22:30 | 22.67311 | -78.80895 | 36990 ft | 452 kts | 176° |
| 2026-05-03 22:30 | 22.61090 | -78.79682 | 36991 ft | 453 kts | 176° |
| 2026-05-03 22:31 | 22.54862 | -78.78471 | 36995 ft | 454 kts | 176° |
| 2026-05-03 22:31 | 22.48625 | -78.77261 | 37001 ft | 455 kts | 176° |
| 2026-05-03 22:32 | 22.41825 | -78.75942 | 37002 ft | 456 kts | 176° |
| 2026-05-03 22:32 | 22.35519 | -78.74718 | 37002 ft | 456 kts | 176° |
| 2026-05-03 22:33 | 22.29286 | -78.73510 | 37002 ft | 456 kts | 176° |
| 2026-05-03 22:33 | 22.23014 | -78.72297 | 37003 ft | 458 kts | 176° |